createdAt,value
2019-02-28T02:15:11.891Z,10.87
2019-02-28T02:17:41.739Z,10.47
2019-02-28T02:20:11.117Z,10.37
2019-02-28T02:22:40.648Z,9.53
2019-02-28T02:25:11.521Z,9.03
2019-02-28T02:27:40.872Z,11.53
2019-02-28T02:30:16.305Z,14.40
2019-02-28T02:32:45.734Z,12.70
2019-02-28T02:35:15.204Z,9.83
2019-02-28T02:37:44.543Z,10.00
2019-02-28T02:40:14.260Z,8.93
2019-02-28T02:42:48.262Z,10.20
2019-02-28T02:45:14.722Z,10.03
2019-02-28T02:47:44.072Z,9.20
2019-02-28T02:50:14.026Z,8.33
2019-02-28T02:52:43.680Z,10.03
2019-02-28T02:55:14.300Z,11.03
2019-02-28T02:57:50.518Z,11.17
2019-02-28T03:00:16.403Z,10.33
2019-02-28T03:02:45.665Z,9.53
2019-02-28T03:05:15.277Z,10.87
2019-02-28T03:07:44.798Z,11.00
2019-02-28T03:10:17.510Z,9.20
2019-02-28T03:12:45.828Z,8.73
2019-02-28T03:15:15.935Z,10.77
2019-02-28T03:17:47.278Z,10.70
2019-02-28T03:20:16.985Z,10.57
2019-02-28T03:22:47.406Z,9.97
2019-02-28T03:25:16.700Z,8.53
2019-02-28T03:27:55.038Z,10.30
2019-02-28T03:30:29.255Z,10.93
2019-02-28T03:32:50.086Z,11.77
2019-02-28T03:35:19.413Z,11.20
2019-02-28T03:37:48.954Z,8.87
2019-02-28T03:40:18.492Z,11.77
2019-02-28T03:42:47.789Z,10.80
2019-02-28T03:45:17.220Z,11.17
2019-02-28T03:47:46.474Z,10.73
2019-02-28T03:50:15.833Z,9.20
2019-02-28T03:52:45.289Z,11.57
2019-02-28T03:55:14.811Z,11.67
2019-02-28T03:57:44.083Z,12.83
2019-02-28T04:00:15.765Z,11.73
2019-02-28T04:02:45.023Z,12.77
2019-02-28T04:05:13.782Z,11.53
2019-02-28T04:07:42.522Z,12.97
2019-02-28T04:10:11.209Z,13.93
2019-02-28T04:12:44.974Z,11.77
2019-02-28T04:15:11.483Z,13.60
2019-02-28T04:17:40.235Z,12.70
2019-02-28T04:20:09.012Z,13.97
2019-02-28T04:22:37.746Z,12.63
2019-02-28T04:25:06.940Z,11.10
2019-02-28T04:27:40.353Z,12.43
2019-02-28T04:30:08.117Z,11.40
2019-02-28T04:32:36.782Z,13.17
2019-02-28T04:35:05.516Z,11.77
2019-02-28T04:37:34.300Z,16.30
2019-02-28T04:40:02.994Z,12.03
2019-02-28T04:42:31.703Z,10.67
2019-02-28T04:45:00.414Z,14.13
2019-02-28T04:47:29.151Z,12.17
2019-02-28T04:49:57.867Z,14.40
2019-02-28T04:52:26.619Z,13.90
2019-02-28T04:54:55.677Z,13.23
2019-02-28T04:57:24.385Z,14.43
2019-02-28T04:59:53.089Z,12.23
2019-02-28T05:02:22.031Z,13.07
2019-02-28T05:04:50.730Z,14.17
2019-02-28T05:07:19.434Z,13.27
2019-02-28T05:09:48.802Z,13.27
2019-02-28T05:12:17.663Z,12.13
2019-02-28T05:14:46.408Z,14.17
2019-02-28T05:17:15.144Z,14.03
2019-02-28T05:19:43.838Z,14.38
2019-02-28T05:22:12.558Z,15.50
2019-02-28T05:24:42.662Z,16.57
2019-02-28T05:27:11.687Z,14.13
2019-02-28T05:29:43.826Z,14.87
2019-02-28T05:32:10.878Z,14.78
2019-02-28T05:34:39.602Z,16.70
2019-02-28T05:37:12.145Z,14.87
2019-02-28T05:39:39.043Z,14.17
2019-02-28T05:42:07.739Z,16.30
2019-02-28T05:44:37.451Z,14.93
2019-02-28T05:47:07.046Z,14.35
2019-02-28T05:49:35.755Z,16.02
2019-02-28T05:52:04.458Z,15.00
2019-02-28T05:54:33.430Z,13.53
2019-02-28T05:57:04.669Z,14.97
2019-02-28T05:59:32.615Z,14.67
2019-02-28T06:02:01.360Z,18.80
2019-02-28T06:04:30.092Z,16.20
2019-02-28T06:06:58.802Z,18.23
2019-02-28T06:09:27.567Z,16.90
2019-02-28T06:11:56.320Z,20.17
2019-02-28T06:14:27.563Z,16.63
2019-02-28T06:16:55.464Z,22.63
2019-02-28T06:19:24.214Z,19.93
2019-02-28T06:21:53.045Z,18.73
2019-02-28T06:24:21.798Z,19.00
2019-02-28T06:26:50.557Z,20.37
2019-02-28T06:29:19.259Z,22.43
2019-02-28T06:31:48.677Z,22.83
2019-02-28T06:34:18.291Z,23.80
2019-02-28T06:36:47.013Z,24.10
2019-02-28T06:39:17.524Z,21.97
2019-02-28T06:41:46.189Z,23.27
2019-02-28T06:44:14.915Z,25.00
2019-02-28T06:46:43.746Z,25.60
2019-02-28T06:49:12.710Z,24.27
2019-02-28T06:51:41.428Z,22.03
2019-02-28T06:54:10.326Z,20.67
2019-02-28T06:56:39.063Z,22.40
2019-02-28T06:59:07.771Z,25.03
2019-02-28T07:01:36.519Z,22.93
2019-02-28T07:04:05.221Z,22.40
2019-02-28T07:06:35.956Z,22.43
2019-02-28T07:09:04.748Z,24.00
2019-02-28T07:11:34.014Z,20.90
2019-02-28T07:14:03.301Z,24.27
2019-02-28T07:16:34.560Z,23.80
2019-02-28T07:19:03.647Z,25.93
2019-02-28T07:21:34.498Z,28.73
2019-02-28T07:24:04.004Z,29.63
2019-02-28T07:26:33.281Z,29.37
2019-02-28T07:29:02.529Z,29.07
2019-02-28T07:31:31.815Z,28.43
2019-02-28T07:34:01.109Z,30.43
2019-02-28T07:36:30.371Z,30.05
2019-02-28T07:39:01.304Z,30.47
2019-02-28T07:41:30.690Z,27.53
2019-02-28T07:44:00.003Z,29.30
2019-02-28T07:46:29.299Z,26.80
2019-02-28T07:49:00.945Z,26.80
2019-02-28T07:51:29.719Z,28.73
2019-02-28T07:53:58.998Z,26.83
2019-02-28T07:56:28.263Z,22.47
2019-02-28T07:58:57.600Z,23.70
2019-02-28T08:01:27.726Z,27.93
2019-02-28T08:03:57.942Z,29.97
2019-02-28T08:06:27.227Z,27.03
2019-02-28T08:08:56.860Z,27.00
2019-02-28T08:11:26.183Z,25.90
2019-02-28T08:13:55.615Z,27.87
2019-02-28T08:16:25.025Z,24.37
2019-02-28T08:18:54.276Z,25.43
2019-02-28T08:21:23.579Z,26.77
2019-02-28T08:23:52.928Z,26.13
2019-02-28T08:26:22.151Z,24.27
2019-02-28T08:28:51.439Z,26.83
2019-02-28T08:31:20.734Z,25.27
2019-02-28T08:33:50.050Z,25.60
2019-02-28T08:36:19.324Z,23.70
2019-02-28T08:38:48.637Z,23.37
2019-02-28T08:41:17.899Z,23.40
2019-02-28T08:43:47.941Z,26.30
2019-02-28T08:46:18.193Z,27.93
2019-02-28T08:48:47.516Z,25.43
2019-02-28T08:51:16.778Z,26.83
2019-02-28T08:53:50.704Z,25.17
2019-02-28T08:56:17.038Z,29.43
2019-02-28T08:58:46.311Z,22.27
2019-02-28T09:01:15.608Z,20.00
2019-02-28T09:03:44.950Z,24.30
2019-02-28T09:06:14.214Z,23.27
2019-02-28T09:08:43.490Z,22.40
2019-02-28T09:11:12.837Z,25.67
2019-02-28T09:13:42.996Z,26.93
2019-02-28T09:16:12.909Z,24.23
2019-02-28T09:18:42.194Z,23.43
2019-02-28T09:21:11.498Z,22.90
2019-02-28T09:23:40.815Z,22.03
2019-02-28T09:26:10.122Z,23.67
2019-02-28T09:28:39.411Z,23.50
2019-02-28T09:31:09.060Z,21.30
2019-02-28T09:33:38.318Z,24.07
2019-02-28T09:36:07.582Z,23.67
2019-02-28T09:38:36.886Z,25.20
2019-02-28T09:41:06.142Z,24.30
2019-02-28T09:43:35.454Z,20.87
2019-02-28T09:46:05.602Z,26.83
2019-02-28T09:48:37.110Z,27.07
2019-02-28T09:51:06.356Z,27.90
2019-02-28T09:53:35.643Z,25.20
2019-02-28T09:56:08.906Z,26.57
2019-02-28T09:58:36.004Z,26.90
2019-02-28T10:01:05.615Z,31.67
2019-02-28T10:03:34.949Z,30.23
2019-02-28T10:06:04.405Z,29.57
2019-02-28T10:08:36.897Z,29.23
2019-02-28T10:11:04.741Z,29.80
2019-02-28T10:13:33.993Z,35.13
2019-02-28T10:16:03.325Z,37.17
2019-02-28T10:18:35.523Z,32.90
2019-02-28T10:21:03.949Z,36.63
2019-02-28T10:23:33.206Z,36.03
2019-02-28T10:26:02.507Z,35.40
2019-02-28T10:28:31.822Z,36.90
2019-02-28T10:31:01.147Z,34.00
2019-02-28T10:33:30.423Z,36.87
2019-02-28T10:35:59.718Z,34.23
2019-02-28T10:38:29.432Z,39.10
2019-02-28T10:41:00.330Z,34.10
2019-02-28T10:43:29.595Z,34.63
2019-02-28T10:45:58.860Z,36.93
2019-02-28T10:48:28.272Z,34.87
2019-02-28T10:50:57.578Z,35.13
2019-02-28T10:53:26.918Z,43.33
2019-02-28T10:55:58.029Z,35.77
2019-02-28T10:58:27.177Z,31.27
2019-02-28T11:00:56.630Z,32.77
2019-02-28T11:03:31.793Z,30.73
2019-02-28T11:05:57.611Z,34.80
2019-02-28T11:08:26.927Z,32.37
2019-02-28T11:10:56.220Z,34.57
2019-02-28T11:13:28.402Z,34.17
2019-02-28T11:15:56.566Z,32.70
2019-02-28T11:18:25.851Z,32.00
2019-02-28T11:20:58.193Z,33.50
2019-02-28T11:23:26.385Z,32.80
2019-02-28T11:25:55.844Z,33.63
2019-02-28T11:28:28.250Z,34.23
2019-02-28T11:30:58.657Z,31.80
2019-02-28T11:33:27.944Z,30.97
2019-02-28T11:35:59.140Z,26.30
2019-02-28T11:38:28.791Z,31.33
2019-02-28T11:40:58.164Z,32.63
2019-02-28T11:43:27.537Z,28.47
2019-02-28T11:46:00.848Z,32.83
2019-02-28T11:48:28.175Z,29.97
2019-02-28T11:50:57.443Z,27.90
2019-02-28T11:53:26.775Z,29.37
2019-02-28T11:55:56.080Z,26.83
2019-02-28T11:58:25.436Z,25.77
2019-02-28T12:00:55.162Z,29.53
2019-02-28T12:03:24.546Z,27.33
2019-02-28T12:05:53.923Z,27.07
2019-02-28T12:08:23.215Z,24.80
2019-02-28T12:10:52.563Z,23.67
2019-02-28T12:13:21.843Z,26.17
2019-02-28T12:15:51.162Z,26.43
2019-02-28T12:18:20.814Z,26.50
2019-02-28T12:20:50.149Z,31.23
2019-02-28T12:23:22.963Z,29.80
2019-02-28T12:25:50.454Z,28.07
2019-02-28T12:28:19.787Z,32.67
2019-02-28T12:30:49.155Z,31.27
2019-02-28T12:33:22.200Z,30.17
2019-02-28T12:35:49.579Z,33.20
2019-02-28T12:38:18.920Z,32.10
2019-02-28T12:40:49.458Z,28.63
2019-02-28T12:43:18.937Z,32.67
2019-02-28T12:45:48.281Z,34.47
2019-02-28T12:48:17.548Z,37.20
2019-02-28T12:50:46.894Z,35.77
2019-02-28T12:53:16.498Z,34.00
2019-02-28T12:55:45.846Z,36.23
2019-02-28T12:58:15.188Z,33.98
2019-02-28T13:00:44.918Z,38.67
2019-02-28T13:03:19.455Z,34.07
2019-02-28T13:05:49.287Z,33.60
2019-02-28T13:08:16.497Z,40.10
2019-02-28T13:10:45.793Z,38.03
2019-02-28T13:13:15.206Z,39.27
2019-02-28T13:15:45.507Z,40.97
2019-02-28T13:18:15.706Z,39.70
2019-02-28T13:20:45.368Z,41.23
2019-02-28T13:23:17.046Z,46.00
2019-02-28T13:25:45.780Z,43.33
2019-02-28T13:28:17.988Z,44.17
2019-02-28T13:30:50.320Z,49.73
2019-02-28T13:33:17.325Z,53.57
2019-02-28T13:35:47.745Z,52.60
2019-02-28T13:38:19.075Z,47.97
2019-02-28T13:40:48.826Z,54.00
2019-02-28T13:43:20.870Z,50.80
2019-02-28T13:45:50.866Z,48.70
2019-02-28T13:48:26.171Z,47.30
2019-02-28T13:50:51.344Z,44.20
2019-02-28T13:53:23.244Z,45.80
2019-02-28T13:55:52.745Z,46.20
2019-02-28T13:58:22.976Z,43.63
2019-02-28T14:00:52.598Z,38.87
2019-02-28T14:03:21.933Z,35.03
2019-02-28T14:05:51.489Z,38.93
2019-02-28T14:08:20.818Z,35.37
2019-02-28T14:10:50.530Z,35.27
2019-02-28T14:13:20.050Z,35.53
2019-02-28T14:15:52.411Z,35.67
2019-02-28T14:18:20.698Z,33.57
2019-02-28T14:20:50.042Z,32.57
2019-02-28T14:23:20.872Z,35.43
2019-02-28T14:25:50.414Z,29.23
2019-02-28T14:28:19.787Z,25.27
2019-02-28T14:30:49.083Z,28.20
2019-02-28T14:33:19.362Z,23.70
2019-02-28T14:35:49.569Z,22.83
2019-02-28T14:38:18.851Z,25.20
2019-02-28T14:40:49.582Z,21.07
2019-02-28T14:43:19.947Z,18.80
2019-02-28T14:45:50.175Z,19.07
2019-02-28T14:48:19.523Z,16.83
2019-02-28T14:50:50.741Z,17.27
2019-02-28T14:53:19.948Z,13.73
2019-02-28T14:55:49.253Z,11.43
2019-02-28T14:58:21.232Z,15.33
2019-02-28T15:00:49.651Z,12.67
2019-02-28T15:03:19.009Z,11.83
2019-02-28T15:05:48.385Z,13.40
2019-02-28T15:08:17.776Z,10.57
2019-02-28T15:10:47.340Z,10.27
2019-02-28T15:13:16.634Z,9.57
2019-02-28T15:15:45.999Z,10.33
2019-02-28T15:18:15.322Z,12.93
2019-02-28T15:20:44.641Z,7.70
2019-02-28T15:23:14.930Z,11.53
2019-02-28T15:25:44.208Z,10.17
2019-02-28T15:28:14.056Z,8.93
2019-02-28T15:30:44.278Z,10.00
2019-02-28T15:33:13.670Z,12.17
2019-02-28T15:35:43.127Z,7.87
2019-02-28T15:38:12.591Z,9.03
2019-02-28T15:40:41.896Z,9.03
2019-02-28T15:43:16.856Z,9.97
2019-02-28T15:45:42.511Z,8.40
2019-02-28T15:48:11.801Z,9.27
2019-02-28T15:50:41.132Z,11.27
2019-02-28T15:53:11.390Z,10.83
2019-02-28T15:55:41.436Z,8.83
2019-02-28T15:58:10.786Z,8.27
2019-02-28T16:00:40.070Z,15.10
2019-02-28T16:03:09.406Z,10.10
2019-02-28T16:05:42.459Z,6.07
2019-02-28T16:08:10.785Z,6.13
2019-02-28T16:10:40.220Z,7.60
2019-02-28T16:13:09.550Z,5.10
2019-02-28T16:15:38.888Z,5.97
2019-02-28T16:18:10.670Z,8.17
2019-02-28T16:20:39.370Z,7.40
2019-02-28T16:23:08.924Z,8.63
2019-02-28T16:25:38.233Z,5.37
2019-02-28T16:28:09.194Z,7.93
2019-02-28T16:30:39.923Z,6.90
2019-02-28T16:33:14.546Z,7.77
2019-02-28T16:35:46.654Z,9.70
2019-02-28T16:38:14.984Z,6.53
2019-02-28T16:40:44.362Z,7.77
2019-02-28T16:43:13.631Z,9.47
2019-02-28T16:45:46.053Z,8.80
2019-02-28T16:48:15.400Z,8.90
2019-02-28T16:50:44.979Z,8.83
2019-02-28T16:53:17.380Z,8.50
2019-02-28T16:55:46.738Z,8.57
2019-02-28T16:58:18.643Z,8.20
2019-02-28T17:00:47.394Z,7.20
2019-02-28T17:03:16.712Z,10.10
2019-02-28T17:05:46.040Z,10.50
2019-02-28T17:08:18.589Z,9.17
2019-02-28T17:10:47.041Z,7.67
2019-02-28T17:13:35.564Z,9.87
2019-02-28T17:16:28.415Z,9.57
2019-02-28T17:18:57.830Z,10.30
2019-02-28T17:21:27.143Z,7.30
2019-02-28T17:23:56.470Z,10.07
2019-02-28T17:26:50.326Z,9.33
2019-02-28T17:29:38.584Z,9.67
2019-02-28T17:32:07.990Z,11.93
2019-02-28T17:34:37.473Z,7.97
2019-02-28T17:37:06.834Z,10.03
2019-02-28T17:39:36.234Z,9.60
2019-02-28T17:42:08.868Z,10.67
2019-02-28T17:45:03.371Z,11.47
2019-02-28T17:48:16.043Z,12.80
2019-02-28T17:51:22.327Z,11.83
2019-02-28T17:54:17.226Z,8.07
2019-02-28T17:57:31.291Z,9.87
2019-02-28T18:00:48.175Z,9.63
2019-02-28T18:04:12.148Z,10.67
2019-02-28T18:07:19.971Z,11.00
2019-02-28T18:10:07.108Z,9.93
2019-02-28T18:13:20.217Z,8.33
2019-02-28T18:16:29.145Z,8.83
2019-02-28T18:19:33.517Z,8.50
2019-02-28T18:22:35.031Z,10.33
2019-02-28T18:25:33.028Z,6.93
2019-02-28T18:28:49.054Z,11.37
2019-02-28T18:31:19.102Z,9.50
2019-02-28T18:34:01.490Z,12.47
2019-02-28T18:36:32.135Z,9.53
2019-02-28T18:39:01.469Z,10.53
2019-02-28T18:41:30.797Z,11.97
2019-02-28T18:44:03.473Z,9.37
2019-02-28T18:46:31.174Z,10.53
2019-02-28T18:49:00.498Z,11.37
2019-02-28T18:51:29.795Z,9.13
2019-02-28T18:53:59.397Z,8.43
2019-02-28T18:56:28.729Z,7.57
2019-02-28T18:58:58.109Z,11.33
2019-02-28T19:01:27.463Z,12.40
2019-02-28T19:03:56.846Z,12.77
2019-02-28T19:06:26.535Z,12.33
2019-02-28T19:08:55.821Z,11.87
2019-02-28T19:11:25.119Z,9.43
2019-02-28T19:13:54.480Z,11.13
2019-02-28T19:16:23.980Z,14.17
2019-02-28T19:18:53.343Z,13.13
2019-02-28T19:21:22.759Z,11.73
2019-02-28T19:23:52.197Z,12.43
2019-02-28T19:26:24.136Z,13.90
2019-02-28T19:28:53.436Z,12.27
2019-02-28T19:31:22.782Z,14.43
2019-02-28T19:33:52.107Z,10.73
2019-02-28T19:36:21.465Z,12.47
2019-02-28T19:38:50.827Z,12.50
2019-02-28T19:41:20.277Z,13.13
2019-02-28T19:43:49.565Z,14.73
2019-02-28T19:46:18.885Z,12.80
2019-02-28T19:48:48.227Z,15.50
2019-02-28T19:51:17.499Z,13.63
2019-02-28T19:53:46.910Z,13.93
2019-02-28T19:56:16.347Z,13.27
2019-02-28T19:58:45.684Z,11.83
2019-02-28T20:01:18.973Z,15.73
2019-02-28T20:03:46.194Z,13.03
2019-02-28T20:06:15.575Z,11.95
2019-02-28T20:08:44.984Z,16.00
2019-02-28T20:11:14.344Z,15.37
2019-02-28T20:13:43.745Z,15.70
2019-02-28T20:16:13.098Z,16.33
2019-02-28T20:18:42.442Z,12.90
2019-02-28T20:21:11.792Z,11.97
2019-02-28T20:23:41.183Z,11.47
2019-02-28T20:26:10.600Z,13.40
2019-02-28T20:28:39.934Z,13.73
2019-02-28T20:31:09.808Z,13.63
2019-02-28T20:33:39.265Z,12.83
2019-02-28T20:36:08.572Z,10.93
2019-02-28T20:38:38.011Z,12.70
2019-02-28T20:41:07.434Z,13.73
2019-02-28T20:43:37.199Z,12.73
2019-02-28T20:46:06.558Z,12.17
2019-02-28T20:48:35.879Z,12.37
2019-02-28T20:51:05.289Z,12.87
2019-02-28T20:53:34.663Z,10.60
2019-02-28T20:56:04.408Z,9.87
2019-02-28T20:58:33.731Z,11.87
2019-02-28T21:01:03.174Z,8.80
2019-02-28T21:03:32.464Z,11.40
2019-02-28T21:06:01.796Z,11.97
2019-02-28T21:08:31.385Z,13.47
2019-02-28T21:11:00.751Z,13.00
2019-02-28T21:13:30.107Z,13.80
2019-02-28T21:15:59.469Z,11.57
2019-02-28T21:18:28.789Z,13.83
2019-02-28T21:20:58.076Z,13.30
2019-02-28T21:23:27.396Z,12.90
2019-02-28T21:25:57.378Z,16.23
2019-02-28T21:28:26.823Z,14.93
2019-02-28T21:30:56.131Z,16.07
2019-02-28T21:33:25.477Z,14.97
2019-02-28T21:35:54.851Z,15.37
2019-02-28T21:38:24.219Z,12.63
2019-02-28T21:40:53.602Z,14.83
2019-02-28T21:43:22.879Z,16.47
2019-02-28T21:45:52.306Z,14.33
2019-02-28T21:48:21.618Z,15.77
2019-02-28T21:50:50.917Z,11.93
2019-02-28T21:53:20.261Z,13.30
2019-02-28T21:55:49.802Z,10.77
2019-02-28T21:58:19.185Z,13.70
2019-02-28T22:00:48.473Z,11.07
2019-02-28T22:03:17.825Z,12.00
2019-02-28T22:05:47.114Z,11.17
2019-02-28T22:08:16.467Z,10.33
2019-02-28T22:10:45.816Z,9.80
2019-02-28T22:13:15.140Z,7.67
2019-02-28T22:15:44.447Z,10.00
2019-02-28T22:18:13.779Z,8.87
2019-02-28T22:20:43.090Z,10.20
2019-02-28T22:23:12.380Z,7.60
2019-02-28T22:25:41.665Z,7.37
2019-02-28T22:28:11.021Z,8.27
2019-02-28T22:31:02.080Z,5.40
2019-02-28T22:33:38.019Z,5.43
2019-02-28T22:36:08.740Z,6.80
2019-02-28T22:38:38.046Z,6.37
2019-02-28T22:41:07.319Z,5.50
2019-02-28T22:43:38.360Z,6.17
2019-02-28T22:46:07.635Z,4.87
2019-02-28T22:48:36.905Z,4.33
2019-02-28T22:51:06.301Z,5.20
2019-02-28T22:53:35.659Z,4.20
2019-02-28T22:56:04.920Z,5.60
2019-02-28T22:58:34.179Z,4.30
2019-02-28T23:01:08.600Z,4.97
2019-02-28T23:03:39.508Z,5.17
2019-02-28T23:06:09.095Z,4.47
2019-02-28T23:08:38.391Z,4.50
2019-02-28T23:11:07.653Z,4.03
2019-02-28T23:13:37.269Z,5.23
2019-02-28T23:16:06.903Z,5.50
2019-02-28T23:18:36.169Z,4.07
2019-02-28T23:21:05.693Z,3.90
2019-02-28T23:23:34.987Z,3.67
2019-02-28T23:26:08.112Z,4.63
2019-02-28T23:28:39.562Z,3.80
2019-02-28T23:31:51.046Z,5.33
2019-02-28T23:34:25.130Z,5.10
2019-02-28T23:36:54.428Z,4.10
2019-02-28T23:39:23.688Z,4.07
2019-02-28T23:41:52.941Z,5.37
2019-02-28T23:44:22.195Z,4.13
2019-02-28T23:46:51.479Z,3.83
2019-02-28T23:49:20.726Z,5.50
2019-02-28T23:51:50.011Z,4.23
2019-02-28T23:54:19.263Z,3.77
2019-02-28T23:56:48.542Z,5.80
2019-02-28T23:59:17.814Z,5.13
